createdAt,value
2018-12-16T00:00:18.463Z,15.25
2018-12-16T00:02:46.690Z,14.03
2018-12-16T00:05:14.790Z,13.68
2018-12-16T00:07:42.979Z,14.18
2018-12-16T00:10:11.093Z,14.85
2018-12-16T00:12:39.201Z,14.05
2018-12-16T00:15:07.477Z,14.87
2018-12-16T00:17:35.608Z,14.05
2018-12-16T00:20:03.837Z,14.00
2018-12-16T00:22:32.201Z,15.10
2018-12-16T00:25:00.440Z,15.10
2018-12-16T00:27:28.626Z,13.65
2018-12-16T00:29:56.775Z,14.70
2018-12-16T00:32:24.935Z,13.68
2018-12-16T00:34:53.082Z,13.68
2018-12-16T00:37:21.473Z,14.18
2018-12-16T00:39:49.570Z,14.33
2018-12-16T00:42:17.739Z,13.48
2018-12-16T00:44:45.895Z,13.70
2018-12-16T00:47:14.114Z,12.73
2018-12-16T00:49:42.304Z,14.20
2018-12-16T00:52:10.400Z,13.48
2018-12-16T00:54:38.488Z,14.00
2018-12-16T00:57:06.598Z,14.43
2018-12-16T00:59:34.713Z,13.10
2018-12-16T01:02:02.947Z,13.18
2018-12-16T01:04:31.165Z,13.40
2018-12-16T01:06:59.317Z,13.43
2018-12-16T01:09:27.503Z,15.35
2018-12-16T01:11:55.636Z,13.83
2018-12-16T01:14:23.755Z,14.30
2018-12-16T01:16:51.892Z,13.35
2018-12-16T01:19:20.387Z,13.18
2018-12-16T01:21:48.599Z,13.95
2018-12-16T01:24:18.321Z,14.80
2018-12-16T01:26:46.612Z,14.15
2018-12-16T01:29:14.715Z,13.60
2018-12-16T01:31:42.843Z,14.53
2018-12-16T01:34:11.008Z,14.13
2018-12-16T01:36:39.258Z,14.98
2018-12-16T01:39:07.389Z,14.05
2018-12-16T01:41:35.501Z,14.50
2018-12-16T01:44:03.831Z,13.70
2018-12-16T01:46:31.957Z,15.35
2018-12-16T01:49:00.089Z,15.43
2018-12-16T01:51:28.174Z,13.55
2018-12-16T01:53:56.324Z,13.70
2018-12-16T01:56:24.459Z,14.98
2018-12-16T01:58:52.518Z,14.28
2018-12-16T02:01:20.656Z,13.78
2018-12-16T02:03:48.894Z,14.10
2018-12-16T02:06:17.029Z,14.58
2018-12-16T02:08:45.201Z,13.70
2018-12-16T02:11:13.340Z,14.68
2018-12-16T02:13:41.456Z,13.98
2018-12-16T02:16:09.603Z,14.93
2018-12-16T02:18:37.744Z,14.18
2018-12-16T02:21:05.851Z,14.15
2018-12-16T02:23:33.977Z,13.62
2018-12-16T02:26:02.087Z,15.70
2018-12-16T02:28:30.244Z,14.95
2018-12-16T02:30:58.387Z,14.87
2018-12-16T02:33:26.511Z,13.43
2018-12-16T02:35:54.649Z,14.05
2018-12-16T02:38:22.824Z,13.58
2018-12-16T02:40:50.934Z,14.43
2018-12-16T02:43:19.013Z,14.05
2018-12-16T02:45:47.109Z,14.75
2018-12-16T02:48:15.258Z,15.03
2018-12-16T02:50:43.341Z,12.47
2018-12-16T02:53:11.441Z,14.05
2018-12-16T02:55:39.569Z,13.22
2018-12-16T02:58:07.662Z,14.43
2018-12-16T03:00:35.747Z,14.13
2018-12-16T03:03:03.866Z,14.25
2018-12-16T03:05:32.029Z,14.38
2018-12-16T03:08:00.146Z,14.13
2018-12-16T03:10:28.280Z,14.45
2018-12-16T03:12:56.351Z,14.40
2018-12-16T03:15:24.443Z,13.10
2018-12-16T03:17:52.761Z,14.23
2018-12-16T03:20:20.869Z,13.95
2018-12-16T03:22:48.977Z,13.32
2018-12-16T03:25:17.342Z,14.55
2018-12-16T03:27:45.475Z,13.40
2018-12-16T03:30:13.593Z,13.62
2018-12-16T03:32:41.718Z,12.43
2018-12-16T03:35:09.935Z,12.95
2018-12-16T03:37:38.075Z,13.93
2018-12-16T03:40:06.827Z,12.73
2018-12-16T03:42:34.920Z,14.10
2018-12-16T03:45:03.050Z,14.10
2018-12-16T03:47:31.138Z,14.13
2018-12-16T03:49:59.243Z,14.50
2018-12-16T03:52:27.383Z,13.20
2018-12-16T03:54:55.522Z,14.43
2018-12-16T03:57:23.675Z,14.35
2018-12-16T03:59:51.767Z,12.88
2018-12-16T04:02:19.863Z,12.98
2018-12-16T04:04:47.972Z,13.43
2018-12-16T04:07:16.071Z,13.20
2018-12-16T04:09:44.160Z,14.00
2018-12-16T04:12:12.278Z,13.30
2018-12-16T04:14:41.367Z,13.60
2018-12-16T04:17:09.608Z,13.15
2018-12-16T04:19:37.825Z,14.28
2018-12-16T04:22:05.951Z,12.93
2018-12-16T04:24:34.101Z,13.78
2018-12-16T04:27:02.194Z,13.10
2018-12-16T04:29:30.318Z,14.40
2018-12-16T04:31:58.411Z,13.20
2018-12-16T04:34:26.548Z,13.80
2018-12-16T04:36:54.635Z,12.88
2018-12-16T04:39:22.789Z,13.65
2018-12-16T04:41:50.889Z,13.78
2018-12-16T04:44:19.033Z,14.60
2018-12-16T04:46:47.158Z,13.50
2018-12-16T04:49:15.283Z,13.08
2018-12-16T04:51:43.423Z,13.90
2018-12-16T04:54:11.879Z,14.70
2018-12-16T04:56:40.062Z,14.28
2018-12-16T04:59:08.133Z,14.07
2018-12-16T05:01:36.242Z,14.13
2018-12-16T05:04:04.362Z,13.20
2018-12-16T05:06:32.505Z,13.28
2018-12-16T05:09:00.597Z,13.98
2018-12-16T05:11:28.738Z,14.18
2018-12-16T05:13:56.843Z,13.43
2018-12-16T05:16:24.961Z,13.45
2018-12-16T05:18:53.053Z,13.85
2018-12-16T05:21:21.216Z,13.25
2018-12-16T05:23:49.348Z,12.95
2018-12-16T05:26:17.422Z,14.23
2018-12-16T05:28:45.540Z,14.38
2018-12-16T05:31:13.733Z,12.98
2018-12-16T05:33:41.853Z,14.45
2018-12-16T05:36:10.031Z,13.15
2018-12-16T05:38:38.109Z,13.90
2018-12-16T05:41:06.221Z,14.63
2018-12-16T05:43:34.403Z,13.90
2018-12-16T05:46:02.520Z,13.55
2018-12-16T05:48:30.676Z,14.13
2018-12-16T05:50:58.755Z,14.98
2018-12-16T05:53:26.906Z,13.90
2018-12-16T05:55:54.994Z,13.93
2018-12-16T05:58:23.112Z,15.03
2018-12-16T06:00:51.287Z,13.68
2018-12-16T06:03:19.415Z,15.00
2018-12-16T06:05:47.500Z,14.87
2018-12-16T06:08:15.653Z,15.23
2018-12-16T06:10:43.716Z,13.95
2018-12-16T06:13:11.925Z,14.90
2018-12-16T06:15:40.172Z,13.90
2018-12-16T06:18:08.545Z,15.38
2018-12-16T06:20:36.631Z,15.70
2018-12-16T06:23:04.728Z,15.25
2018-12-16T06:25:32.833Z,14.18
2018-12-16T06:28:00.963Z,15.28
2018-12-16T06:30:32.432Z,15.25
2018-12-16T06:33:00.529Z,15.30
2018-12-16T06:35:28.767Z,14.93
2018-12-16T06:37:56.905Z,15.05
2018-12-16T06:40:25.034Z,15.80
2018-12-16T06:42:53.117Z,14.43
2018-12-16T06:45:21.289Z,14.78
2018-12-16T06:47:49.453Z,15.08
2018-12-16T06:50:17.565Z,13.65
2018-12-16T06:52:45.702Z,15.08
2018-12-16T06:55:13.826Z,14.93
2018-12-16T06:57:41.982Z,15.23
2018-12-16T07:00:10.228Z,14.68
2018-12-16T07:02:38.378Z,14.33
2018-12-16T07:05:06.605Z,14.38
2018-12-16T07:07:34.773Z,14.55
2018-12-16T07:10:02.912Z,15.38
2018-12-16T07:12:31.074Z,14.25
2018-12-16T07:14:59.254Z,15.80
2018-12-16T07:17:27.494Z,14.18
2018-12-16T07:19:55.620Z,15.38
2018-12-16T07:22:23.820Z,16.02
2018-12-16T07:24:51.967Z,13.68
2018-12-16T07:27:20.277Z,15.13
2018-12-16T07:29:48.500Z,14.18
2018-12-16T07:32:16.641Z,14.15
2018-12-16T07:34:44.766Z,15.53
2018-12-16T07:37:18.844Z,14.33
2018-12-16T07:39:43.024Z,15.53
2018-12-16T07:42:12.062Z,14.65
2018-12-16T07:44:40.207Z,14.60
2018-12-16T07:47:08.327Z,15.65
2018-12-16T07:49:36.492Z,15.55
2018-12-16T07:52:04.706Z,15.83
2018-12-16T07:54:32.872Z,15.83
2018-12-16T07:57:01.044Z,14.93
2018-12-16T07:59:29.205Z,15.93
2018-12-16T08:01:57.465Z,14.20
2018-12-16T08:04:25.634Z,14.68
2018-12-16T08:06:53.754Z,14.73
2018-12-16T08:09:21.911Z,14.03
2018-12-16T08:11:50.038Z,14.73
2018-12-16T08:14:18.201Z,14.85
2018-12-16T08:16:46.344Z,14.20
2018-12-16T08:19:14.633Z,14.15
2018-12-16T08:21:42.814Z,14.43
2018-12-16T08:24:10.980Z,14.63
2018-12-16T08:26:39.158Z,14.03
2018-12-16T08:29:07.266Z,14.25
2018-12-16T08:31:35.400Z,14.28
2018-12-16T08:34:03.514Z,14.15
2018-12-16T08:36:31.687Z,14.85
2018-12-16T08:38:59.838Z,14.13
2018-12-16T08:41:28.007Z,15.00
2018-12-16T08:43:56.176Z,14.93
2018-12-16T08:46:24.356Z,14.20
2018-12-16T08:48:52.515Z,14.20
2018-12-16T08:51:20.631Z,14.00
2018-12-16T08:53:48.771Z,13.98
2018-12-16T08:56:16.889Z,15.03
2018-12-16T08:58:45.024Z,14.10
2018-12-16T09:01:13.132Z,15.08
2018-12-16T09:03:41.508Z,15.00
2018-12-16T09:06:09.667Z,14.95
2018-12-16T09:08:38.138Z,13.50
2018-12-16T09:11:06.262Z,14.15
2018-12-16T09:13:34.339Z,14.35
2018-12-16T09:16:02.484Z,13.28
2018-12-16T09:18:30.611Z,15.13
2018-12-16T09:20:58.753Z,13.72
2018-12-16T09:23:26.872Z,13.10
2018-12-16T09:25:54.999Z,15.05
2018-12-16T09:28:23.094Z,14.55
2018-12-16T09:30:57.785Z,16.05
2018-12-16T09:33:21.344Z,14.25
2018-12-16T09:35:49.450Z,14.00
2018-12-16T09:38:17.622Z,14.53
2018-12-16T09:40:45.733Z,15.80
2018-12-16T09:43:13.865Z,15.83
2018-12-16T09:45:42.022Z,14.63
2018-12-16T09:48:10.119Z,14.68
2018-12-16T09:50:38.385Z,14.05
2018-12-16T09:53:06.545Z,13.88
2018-12-16T09:55:34.671Z,13.78
2018-12-16T09:58:02.816Z,13.70
2018-12-16T10:00:30.975Z,14.95
2018-12-16T10:02:59.156Z,14.03
2018-12-16T10:05:27.268Z,14.63
2018-12-16T10:07:55.417Z,13.78
2018-12-16T10:10:23.555Z,13.83
2018-12-16T10:12:51.678Z,14.30
2018-12-16T10:15:19.871Z,14.93
2018-12-16T10:17:48.049Z,13.72
2018-12-16T10:20:16.240Z,13.55
2018-12-16T10:22:44.376Z,13.48
2018-12-16T10:25:12.648Z,15.38
2018-12-16T10:27:40.769Z,14.30
2018-12-16T10:30:09.083Z,13.28
2018-12-16T10:32:37.242Z,14.60
2018-12-16T10:35:05.619Z,13.93
2018-12-16T10:37:33.695Z,14.68
2018-12-16T10:40:01.862Z,13.88
2018-12-16T10:42:30.009Z,14.55
2018-12-16T10:44:58.164Z,16.10
2018-12-16T10:47:26.287Z,14.40
2018-12-16T10:49:54.461Z,16.20
2018-12-16T10:52:22.664Z,14.23
2018-12-16T10:54:50.843Z,14.98
2018-12-16T10:57:18.987Z,15.43
2018-12-16T10:59:47.292Z,14.15
2018-12-16T11:02:15.599Z,14.90
2018-12-16T11:04:43.862Z,15.28
2018-12-16T11:48:49.805Z,17.32
2018-12-16T12:06:05.567Z,14.40
2018-12-16T12:08:33.696Z,16.73
2018-12-16T12:11:01.879Z,14.68
2018-12-16T12:13:29.986Z,17.10
2018-12-16T12:15:58.124Z,14.40
2018-12-16T12:18:26.195Z,16.90
2018-12-16T12:20:54.352Z,15.90
2018-12-16T12:23:22.526Z,15.72
2018-12-16T12:25:50.736Z,15.45
2018-12-16T12:28:19.116Z,15.32
2018-12-16T12:30:47.363Z,14.53
2018-12-16T12:33:15.655Z,14.95
2018-12-16T12:35:43.842Z,15.63
2018-12-16T12:38:12.022Z,14.87
2018-12-16T12:40:40.327Z,15.72
2018-12-16T12:43:08.444Z,15.88
2018-12-16T12:45:46.185Z,15.98
2018-12-16T12:48:14.419Z,16.27
2018-12-16T12:50:42.605Z,15.95
2018-12-16T12:53:10.815Z,14.53
2018-12-16T12:55:39.092Z,15.23
2018-12-16T12:58:07.306Z,15.95
2018-12-16T13:00:35.492Z,16.17
2018-12-16T13:03:03.762Z,15.72
2018-12-16T13:05:37.013Z,15.20
2018-12-16T13:08:02.486Z,16.75
2018-12-16T13:10:30.672Z,16.37
2018-12-16T13:12:58.829Z,16.17
2018-12-16T13:15:27.078Z,15.75
2018-12-16T13:17:55.200Z,16.25
2018-12-16T13:20:23.344Z,15.55
2018-12-16T13:22:51.556Z,16.75
2018-12-16T13:25:25.247Z,16.20
2018-12-16T13:27:53.383Z,15.35
2018-12-16T13:30:21.592Z,16.93
2018-12-16T13:32:49.845Z,17.17
2018-12-16T13:35:17.993Z,15.68
2018-12-16T13:37:46.151Z,16.90
2018-12-16T13:40:14.411Z,15.70
2018-12-16T13:42:42.659Z,17.37
2018-12-16T13:45:10.878Z,16.65
2018-12-16T13:47:39.011Z,17.67
2018-12-16T13:50:08.162Z,16.35
2018-12-16T13:52:36.290Z,17.23
2018-12-16T13:55:04.533Z,16.77
2018-12-16T13:57:36.180Z,16.52
2018-12-16T15:14:23.359Z,17.60
2018-12-16T15:16:51.479Z,20.43
2018-12-16T15:19:19.613Z,18.35
2018-12-16T15:21:47.721Z,17.90
2018-12-16T15:24:15.850Z,17.32
2018-12-16T15:26:44.107Z,18.07
2018-12-16T15:29:12.220Z,18.17
2018-12-16T15:31:40.364Z,16.93
2018-12-16T15:34:08.538Z,17.48
2018-12-16T15:36:36.696Z,18.02
2018-12-16T15:39:05.964Z,16.45
2018-12-16T15:41:34.150Z,17.02
2018-12-16T15:44:02.485Z,17.10
2018-12-16T15:46:30.620Z,17.35
2018-12-16T15:48:58.725Z,17.45
2018-12-16T15:51:26.883Z,18.87
2018-12-16T15:53:55.084Z,17.57
2018-12-16T15:56:23.190Z,17.75
2018-12-16T15:58:51.362Z,15.98
2018-12-16T16:01:19.506Z,17.32
2018-12-16T16:03:47.680Z,17.80
2018-12-16T16:06:15.815Z,16.00
2018-12-16T16:08:43.935Z,17.50
2018-12-16T16:11:12.097Z,17.37
2018-12-16T16:13:40.284Z,18.23
2018-12-16T16:16:08.417Z,17.30
2018-12-16T16:18:36.599Z,17.75
2018-12-16T16:21:04.740Z,17.92
2018-12-16T16:23:32.841Z,17.17
2018-12-16T16:26:00.980Z,18.40
2018-12-16T16:28:29.565Z,18.90
2018-12-16T16:30:57.720Z,17.77
2018-12-16T16:33:26.017Z,17.10
2018-12-16T16:35:54.201Z,16.20
2018-12-16T16:38:22.359Z,16.62
2018-12-16T16:40:50.830Z,16.77
2018-12-16T16:43:18.988Z,17.00
2018-12-16T16:45:47.163Z,16.12
2018-12-16T16:48:15.309Z,17.67
2018-12-16T16:50:43.426Z,17.80
2018-12-16T16:53:11.671Z,16.37
2018-12-16T16:55:39.913Z,17.90
2018-12-16T16:58:09.897Z,16.87
2018-12-16T17:06:11.785Z,17.07
2018-12-16T17:08:40.304Z,17.90
2018-12-16T17:11:08.662Z,17.35
2018-12-16T17:13:36.810Z,17.80
2018-12-16T17:16:05.086Z,18.10
2018-12-16T17:18:34.652Z,17.70
2018-12-16T17:21:03.341Z,18.10
2018-12-16T17:23:31.596Z,17.70
2018-12-16T17:26:00.863Z,18.48
2018-12-16T17:28:29.251Z,17.05
2018-12-16T17:30:58.793Z,18.77
2018-12-16T17:33:27.229Z,18.23
2018-12-16T17:35:56.098Z,18.48
2018-12-16T17:38:24.625Z,18.65
2018-12-16T17:40:53.242Z,19.00
2018-12-16T17:43:21.712Z,19.10
2018-12-16T17:45:50.177Z,17.35
2018-12-16T17:48:19.186Z,18.02
2018-12-16T17:50:47.462Z,19.17
2018-12-16T17:53:15.875Z,20.43
2018-12-16T17:55:44.056Z,18.32
2018-12-16T17:58:12.509Z,18.70
2018-12-16T18:00:40.737Z,18.65
2018-12-16T18:03:09.158Z,20.55
2018-12-16T18:05:37.502Z,21.62
2018-12-16T18:08:05.942Z,21.30
2018-12-16T18:10:34.439Z,21.48
2018-12-16T18:13:02.862Z,22.13
2018-12-16T18:15:31.221Z,21.48
2018-12-16T18:17:59.909Z,21.33
2018-12-16T18:20:28.518Z,20.97
2018-12-16T18:22:56.888Z,20.45
2018-12-16T18:25:26.217Z,20.72
2018-12-16T18:27:54.907Z,20.80
2018-12-16T18:30:23.421Z,19.87
2018-12-16T18:32:52.046Z,19.17
2018-12-16T18:35:20.362Z,20.82
2018-12-16T18:37:48.935Z,19.75
2018-12-16T18:40:17.265Z,20.50
2018-12-16T18:42:45.423Z,20.55
2018-12-16T18:45:13.676Z,19.15
2018-12-16T18:47:41.937Z,19.75
2018-12-16T18:50:10.223Z,19.27
2018-12-16T18:52:38.572Z,18.42
2018-12-16T18:55:08.247Z,20.23
2018-12-16T18:57:36.682Z,18.48
2018-12-16T19:00:05.749Z,20.62
2018-12-16T19:02:33.987Z,20.23
2018-12-16T19:05:02.155Z,19.60
2018-12-16T19:07:30.267Z,19.42
2018-12-16T19:09:58.438Z,19.80
2018-12-16T19:12:26.642Z,18.73
2018-12-16T19:14:54.956Z,19.50
2018-12-16T19:17:23.087Z,20.57
2018-12-16T19:19:51.241Z,20.68
2018-12-16T19:22:19.380Z,19.92
2018-12-16T19:24:47.585Z,20.08
2018-12-16T19:27:15.760Z,20.97
2018-12-16T19:29:43.914Z,19.23
2018-12-16T19:32:12.093Z,20.20
2018-12-16T19:34:40.233Z,19.50
2018-12-16T19:37:08.364Z,19.20
2018-12-16T19:39:36.655Z,19.20
2018-12-16T19:42:04.855Z,18.23
2018-12-16T19:44:33.198Z,19.85
2018-12-16T19:47:01.332Z,19.17
2018-12-16T19:49:29.513Z,18.52
2018-12-16T19:51:57.643Z,20.25
2018-12-16T19:54:26.110Z,19.45
2018-12-16T19:56:54.284Z,19.12
2018-12-16T19:59:22.463Z,19.48
2018-12-16T20:01:50.638Z,20.23
2018-12-16T20:04:20.089Z,22.15
2018-12-16T20:06:48.232Z,22.40
2018-12-16T20:09:16.372Z,22.05
2018-12-16T20:11:44.481Z,20.90
2018-12-16T20:14:12.692Z,19.17
2018-12-16T20:16:40.843Z,21.00
2018-12-16T20:19:09.013Z,19.75
2018-12-16T20:21:37.233Z,18.85
2018-12-16T20:24:06.068Z,18.52
2018-12-16T20:26:34.230Z,19.98
2018-12-16T20:29:02.445Z,19.50
2018-12-16T20:31:30.558Z,19.32
2018-12-16T20:33:58.785Z,19.87
2018-12-16T20:36:26.968Z,19.75
2018-12-16T20:38:55.134Z,19.37
2018-12-16T20:41:23.329Z,19.80
2018-12-16T20:43:51.467Z,20.05
2018-12-16T20:46:19.599Z,20.65
2018-12-16T20:48:47.963Z,19.25
2018-12-16T20:51:16.125Z,19.07
2018-12-16T20:53:44.316Z,21.45
2018-12-16T20:56:12.450Z,21.10
2018-12-16T20:58:40.647Z,20.85
2018-12-16T21:01:08.822Z,22.27
2018-12-16T21:03:37.047Z,21.12
2018-12-16T21:06:05.471Z,19.27
2018-12-16T21:08:33.629Z,21.52
2018-12-16T21:11:06.288Z,21.93
2018-12-16T21:13:39.844Z,19.67
2018-12-16T21:16:13.390Z,20.95
2018-12-16T21:18:41.705Z,20.50
2018-12-16T21:21:10.081Z,19.48
2018-12-16T21:23:38.257Z,19.15
2018-12-16T21:26:06.399Z,19.50
2018-12-16T21:28:34.576Z,19.42
2018-12-16T21:31:02.820Z,19.23
2018-12-16T21:33:30.983Z,20.02
2018-12-16T21:35:59.176Z,21.52
2018-12-16T21:38:27.359Z,19.73
2018-12-16T21:40:55.508Z,19.40
2018-12-16T21:43:23.625Z,20.55
2018-12-16T21:45:51.866Z,19.30
2018-12-16T21:48:20.014Z,19.90
2018-12-16T21:50:48.296Z,20.55
2018-12-16T21:53:16.415Z,21.05
2018-12-16T21:55:44.587Z,20.17
2018-12-16T21:58:12.761Z,19.57
2018-12-16T22:00:40.934Z,20.75
2018-12-16T22:03:09.071Z,20.55
2018-12-16T22:05:37.323Z,20.48
2018-12-16T22:08:05.496Z,19.85
2018-12-16T22:10:33.776Z,19.35
2018-12-16T22:13:01.895Z,20.50
2018-12-16T22:15:30.096Z,19.00
2018-12-16T22:17:58.246Z,21.20
2018-12-16T22:20:26.456Z,20.25
2018-12-16T22:22:54.572Z,22.32
2018-12-16T22:25:22.798Z,19.80
2018-12-16T22:27:50.975Z,19.85
2018-12-16T22:30:19.388Z,19.75
2018-12-16T22:32:47.687Z,19.48
2018-12-16T22:35:15.897Z,20.23
2018-12-16T22:37:44.072Z,20.55
2018-12-16T22:40:12.488Z,22.37
2018-12-16T22:42:40.640Z,20.17
2018-12-16T22:45:08.964Z,20.97
2018-12-16T22:47:37.246Z,22.15
2018-12-16T22:50:05.813Z,19.35
2018-12-16T22:52:33.981Z,21.90
2018-12-16T22:55:02.178Z,22.48
2018-12-16T22:57:30.635Z,20.40
2018-12-16T22:59:58.781Z,21.42
2018-12-16T23:02:26.912Z,20.75
2018-12-16T23:04:55.261Z,20.82
2018-12-16T23:07:23.378Z,21.55
2018-12-16T23:09:51.541Z,21.23
2018-12-16T23:12:19.705Z,20.77
2018-12-16T23:14:47.848Z,20.48
2018-12-16T23:17:15.974Z,21.90
2018-12-16T23:19:46.086Z,21.87
2018-12-16T23:22:14.369Z,22.27
2018-12-16T23:24:42.764Z,20.55
2018-12-16T23:27:10.908Z,21.87
2018-12-16T23:29:39.141Z,20.85
2018-12-16T23:32:07.290Z,21.25
2018-12-16T23:34:38.302Z,22.00
2018-12-16T23:37:06.552Z,22.87
2018-12-16T23:39:35.112Z,21.62
2018-12-16T23:42:03.242Z,22.07
2018-12-16T23:44:31.356Z,22.45
2018-12-16T23:46:59.512Z,21.77
2018-12-16T23:49:27.678Z,21.60
2018-12-16T23:51:56.027Z,22.77
2018-12-16T23:54:24.352Z,22.73
2018-12-16T23:56:52.503Z,20.68
2018-12-16T23:59:20.641Z,21.77
